createdAt,value
2018-03-08T00:00:45.300Z,26.5
2018-03-08T00:01:35.176Z,26.3
2018-03-08T00:02:26.324Z,26.2
2018-03-08T00:03:15.928Z,26.1
2018-03-08T00:04:06.718Z,25.7
2018-03-08T00:04:55.887Z,25.3
2018-03-08T00:05:46.231Z,25.1
2018-03-08T00:06:36.636Z,24.8
2018-03-08T00:07:26.100Z,24.6
2018-03-08T00:08:16.705Z,24.6
2018-03-08T00:09:06.440Z,25.5
2018-03-08T00:09:56.514Z,26.1
2018-03-08T00:10:46.351Z,26.8
2018-03-08T00:11:36.909Z,27.3
2018-03-08T00:12:27.010Z,27.8
2018-03-08T00:13:16.893Z,28.3
2018-03-08T00:14:06.288Z,28.8
2018-03-08T00:14:56.691Z,28.7
2018-03-08T00:15:46.397Z,28.3
2018-03-08T00:16:36.766Z,27.9
2018-03-08T00:17:27.056Z,27.6
2018-03-08T00:18:17.462Z,27.4
2018-03-08T00:19:07.734Z,27.2
2018-03-08T00:19:57.524Z,27
2018-03-08T00:20:47.571Z,26.9
2018-03-08T00:21:37.094Z,26.7
2018-03-08T00:22:26.994Z,26.5
2018-03-08T00:23:16.567Z,26.3
2018-03-08T00:24:05.730Z,26.1
2018-03-08T00:24:56.969Z,26
2018-03-08T00:25:46.639Z,25.8
2018-03-08T00:26:37.281Z,25.7
2018-03-08T00:27:26.359Z,25.5
2018-03-08T00:28:16.423Z,25.4
2018-03-08T00:29:07.104Z,25.2
2018-03-08T00:29:57.183Z,25.1
2018-03-08T00:30:47.311Z,24.9
2018-03-08T00:31:36.641Z,24.8
2018-03-08T00:32:26.412Z,24.6
2018-03-08T00:33:17.021Z,24.5
2018-03-08T00:34:07.009Z,24.3
2018-03-08T00:34:56.491Z,24.2
2018-03-08T00:35:47.111Z,24.3
2018-03-08T00:36:37.172Z,24.6
2018-03-08T00:37:26.605Z,25.3
2018-03-08T00:38:17.270Z,25.9
2018-03-08T00:39:07.060Z,26.4
2018-03-08T00:39:58.124Z,26.9
2018-03-08T00:40:46.115Z,27.4
2018-03-08T00:42:27.478Z,28.3
2018-03-08T00:43:17.556Z,28.8
2018-03-08T00:44:06.951Z,28.5
2018-03-08T00:44:58.293Z,28.1
2018-03-08T00:45:47.071Z,27.7
2018-03-08T00:46:36.681Z,27.4
2018-03-08T00:47:28.526Z,27.3
2018-03-08T00:48:18.586Z,27.1
2018-03-08T00:49:06.912Z,26.9
2018-03-08T00:49:58.746Z,26.7
2018-03-08T00:50:47.686Z,26.5
2018-03-08T00:51:37.860Z,26.3
2018-03-08T00:52:28.359Z,26.2
2018-03-08T00:53:19.397Z,26
2018-03-08T00:54:07.887Z,25.9
2018-03-08T00:54:58.380Z,25.7
2018-03-08T00:55:48.857Z,25.6
2018-03-08T00:56:37.761Z,25.4
2018-03-08T00:57:28.589Z,25.3
2018-03-08T00:58:18.344Z,25.1
2018-03-08T00:59:09.232Z,24.9
2018-03-08T00:59:58.671Z,24.8
2018-03-08T01:00:48.857Z,24.6
2018-03-08T01:01:38.849Z,24.5
2018-03-08T01:02:29.394Z,24.4
2018-03-08T01:03:19.624Z,24.2
2018-03-08T01:04:09.434Z,24.3
2018-03-08T01:04:59.540Z,24.8
2018-03-08T01:05:49.065Z,25.4
2018-03-08T01:06:38.704Z,26.1
2018-03-08T01:07:30.365Z,26.6
2018-03-08T01:08:19.284Z,27.1
2018-03-08T01:09:09.417Z,27.6
2018-03-08T01:10:00.084Z,28.1
2018-03-08T01:10:50.044Z,28.6
2018-03-08T01:11:39.962Z,28.8
2018-03-08T01:12:30.114Z,28.3
2018-03-08T01:13:20.046Z,27.9
2018-03-08T01:14:10.222Z,27.6
2018-03-08T01:15:00.088Z,27.4
2018-03-08T01:15:49.779Z,27.2
2018-03-08T01:16:40.036Z,26.9
2018-03-08T01:17:30.011Z,26.8
2018-03-08T01:18:20.263Z,26.6
2018-03-08T01:19:10.501Z,26.4
2018-03-08T01:20:00.044Z,26.3
2018-03-08T01:20:49.644Z,26.1
2018-03-08T01:21:39.478Z,25.9
2018-03-08T01:22:29.771Z,25.8
2018-03-08T01:23:20.324Z,25.6
2018-03-08T01:24:10.591Z,25.4
2018-03-08T01:25:00.620Z,25.3
2018-03-08T01:25:51.426Z,25.1
2018-03-08T01:26:40.248Z,25
2018-03-08T01:27:30.991Z,24.9
2018-03-08T01:28:20.950Z,24.7
2018-03-08T01:29:10.678Z,24.6
2018-03-08T01:30:00.976Z,24.4
2018-03-08T01:30:50.893Z,24.3
2018-03-08T01:31:41.362Z,24.3
2018-03-08T01:32:31.668Z,24.6
2018-03-08T01:33:21.734Z,25.3
2018-03-08T01:34:11.370Z,25.9
2018-03-08T01:35:01.165Z,26.4
2018-03-08T01:35:51.403Z,26.9
2018-03-08T01:36:42.187Z,27.4
2018-03-08T01:37:32.190Z,27.9
2018-03-08T01:38:23.129Z,28.4
2018-03-08T01:39:11.809Z,28.8
2018-03-08T01:40:01.149Z,28.3
2018-03-08T01:40:51.215Z,27.9
2018-03-08T01:41:41.032Z,27.6
2018-03-08T01:42:30.932Z,27.4
2018-03-08T01:43:22.122Z,27.1
2018-03-08T01:44:12.635Z,26.9
2018-03-08T01:45:01.898Z,26.8
2018-03-08T01:45:51.879Z,26.6
2018-03-08T01:46:42.147Z,26.4
2018-03-08T01:47:32.095Z,26.3
2018-03-08T01:48:22.400Z,26.1
2018-03-08T01:49:12.194Z,26.1
2018-03-08T01:50:01.966Z,25.7
2018-03-08T01:50:52.701Z,25.3
2018-03-08T01:51:41.985Z,24.9
2018-03-08T01:52:33.504Z,24.8
2018-03-08T01:53:22.814Z,24.5
2018-03-08T01:54:12.269Z,24.4
2018-03-08T01:55:02.414Z,25.3
2018-03-08T01:55:52.401Z,26
2018-03-08T01:56:43.180Z,26.6
2018-03-08T01:57:32.316Z,27.2
2018-03-08T01:58:22.384Z,27.7
2018-03-08T01:59:13.475Z,28.3
2018-03-08T02:00:03.637Z,28.8
2018-03-08T02:00:52.889Z,28.6
2018-03-08T02:01:43.698Z,28.2
2018-03-08T02:03:23.249Z,27.6
2018-03-08T02:04:11.925Z,27.4
2018-03-08T02:05:03.779Z,27.1
2018-03-08T02:05:53.629Z,26.9
2018-03-08T02:06:42.983Z,26.8
2018-03-08T02:07:34.533Z,26.6
2018-03-08T02:08:23.870Z,26.4
2018-03-08T02:09:13.248Z,26.3
2018-03-08T02:10:03.952Z,26.1
2018-03-08T02:10:53.423Z,26
2018-03-08T02:11:44.640Z,25.8
2018-03-08T02:12:32.553Z,25.4
2018-03-08T02:13:24.101Z,25.1
2018-03-08T02:14:14.253Z,24.8
2018-03-08T02:15:04.162Z,24.6
2018-03-08T02:15:54.610Z,24.4
2018-03-08T02:16:44.550Z,25.3
2018-03-08T02:17:35.108Z,26
2018-03-08T02:18:24.863Z,26.6
2018-03-08T02:19:13.693Z,27.2
2018-03-08T02:20:04.216Z,27.6
2018-03-08T02:20:54.050Z,28.2
2018-03-08T02:21:44.727Z,28.7
2018-03-08T02:22:35.358Z,28.6
2018-03-08T02:23:25.258Z,28.1
2018-03-08T02:25:04.032Z,27.6
2018-03-08T02:25:55.045Z,27.3
2018-03-08T02:26:44.308Z,27.1
2018-03-08T02:27:35.657Z,26.9
2018-03-08T02:28:24.912Z,26.8
2018-03-08T02:29:15.325Z,26.6
2018-03-08T02:30:05.687Z,26.4
2018-03-08T02:30:55.024Z,26.2
2018-03-08T02:31:45.721Z,26.1
2018-03-08T02:32:35.183Z,25.9
2018-03-08T02:33:25.640Z,25.7
2018-03-08T02:34:15.664Z,25.6
2018-03-08T02:35:06.606Z,25.4
2018-03-08T02:35:55.201Z,25.3
2018-03-08T02:36:44.790Z,25.1
2018-03-08T02:37:35.610Z,24.9
2018-03-08T02:38:25.131Z,24.8
2018-03-08T02:39:15.846Z,24.7
2018-03-08T02:40:06.629Z,24.5
2018-03-08T02:40:55.508Z,24.4
2018-03-08T02:41:45.154Z,24.3
2018-03-08T02:42:35.267Z,24.1
2018-03-08T02:43:25.837Z,24.3
2018-03-08T02:44:16.544Z,24.9
2018-03-08T02:45:06.996Z,25.6
2018-03-08T02:45:55.853Z,26.2
2018-03-08T02:46:46.500Z,26.8
2018-03-08T02:47:36.094Z,27.3
2018-03-08T02:48:26.722Z,27.8
2018-03-08T02:49:15.869Z,28.3
2018-03-08T02:50:05.730Z,28.7
2018-03-08T02:50:57.641Z,28.7
2018-03-08T02:51:46.844Z,28.2
2018-03-08T02:53:27.236Z,27.6
2018-03-08T02:54:16.770Z,27.3
2018-03-08T02:55:07.215Z,27.1
2018-03-08T02:55:57.520Z,26.9
2018-03-08T02:56:47.446Z,26.8
2018-03-08T02:57:36.506Z,26.6
2018-03-08T02:58:27.424Z,26.4
2018-03-08T02:59:18.222Z,26.3
2018-03-08T03:00:07.520Z,26.1
2018-03-08T03:00:57.733Z,25.9
2018-03-08T03:01:47.645Z,25.8
2018-03-08T03:02:37.130Z,25.6
2018-03-08T03:03:26.909Z,25.4
2018-03-08T03:04:17.652Z,25.3
2018-03-08T03:05:07.984Z,25.1
2018-03-08T03:05:57.421Z,24.9
2018-03-08T03:06:47.029Z,24.8
2018-03-08T03:07:38.265Z,24.8
2018-03-08T03:08:27.544Z,24.4
2018-03-08T03:09:18.400Z,24.9
2018-03-08T03:10:07.908Z,25.7
2018-03-08T03:10:57.860Z,26.3
2018-03-08T03:11:47.376Z,26.8
2018-03-08T03:12:38.283Z,27.3
2018-03-08T03:14:18.724Z,28.3
2018-03-08T03:15:08.445Z,28.8
2018-03-08T03:15:58.186Z,28.6
2018-03-08T03:16:49.427Z,28.1
2018-03-08T03:17:38.017Z,27.8
2018-03-08T03:18:29.995Z,27.5
2018-03-08T03:19:19.841Z,27.3
2018-03-08T03:20:10.458Z,27.1
2018-03-08T03:20:59.901Z,26.9
2018-03-08T03:21:49.982Z,26.7
2018-03-08T03:22:40.004Z,26.5
2018-03-08T03:23:30.113Z,26.4
2018-03-08T03:24:20.133Z,26.2
2018-03-08T03:25:09.344Z,26
2018-03-08T03:25:59.634Z,25.9
2018-03-08T03:26:48.976Z,25.7
2018-03-08T03:27:37.851Z,25.5
2018-03-08T03:28:29.433Z,25.4
2018-03-08T03:29:18.736Z,25.2
2018-03-08T03:30:09.516Z,25.1
2018-03-08T03:30:59.415Z,24.9
2018-03-08T03:31:48.688Z,24.8
2018-03-08T03:32:39.451Z,24.6
2018-03-08T03:33:30.373Z,24.4
2018-03-08T03:34:20.606Z,24.3
2018-03-08T03:35:09.626Z,24.2
2018-03-08T03:35:59.849Z,24.1
2018-03-08T03:36:49.512Z,24.3
2018-03-08T03:37:39.523Z,25.1
2018-03-08T03:38:29.270Z,25.7
2018-03-08T03:39:19.493Z,26.3
2018-03-08T03:40:10.015Z,26.8
2018-03-08T03:41:00.289Z,27.3
2018-03-08T03:41:50.289Z,27.8
2018-03-08T03:42:40.730Z,28.3
2018-03-08T03:43:30.605Z,28.7
2018-03-08T03:44:20.065Z,28.5
2018-03-08T03:45:10.864Z,28.1
2018-03-08T03:46:01.206Z,27.7
2018-03-08T03:46:50.545Z,27.4
2018-03-08T03:47:41.409Z,27.3
2018-03-08T03:48:30.704Z,27
2018-03-08T03:49:21.001Z,26.8
2018-03-08T03:50:11.467Z,26.6
2018-03-08T03:51:02.589Z,26.5
2018-03-08T03:51:52.600Z,26.3
2018-03-08T03:52:42.400Z,26.1
2018-03-08T03:53:32.699Z,25.9
2018-03-08T03:54:22.551Z,25.8
2018-03-08T03:55:12.607Z,25.6
2018-03-08T03:56:02.064Z,25.5
2018-03-08T03:56:50.622Z,25.3
2018-03-08T03:57:40.800Z,25.2
2018-03-08T03:58:31.734Z,25.2
2018-03-08T03:59:20.956Z,24.8
2018-03-08T04:00:11.445Z,24.4
2018-03-08T04:01:00.467Z,25.1
2018-03-08T04:01:51.082Z,25.8
2018-03-08T04:02:41.614Z,26.4
2018-03-08T04:03:32.025Z,26.9
2018-03-08T04:04:21.666Z,27.4
2018-03-08T04:05:10.767Z,27.9
2018-03-08T04:06:01.479Z,28.4
2018-03-08T04:06:52.489Z,28.9
2018-03-08T04:07:41.932Z,28.4
2018-03-08T04:08:31.886Z,28
2018-03-08T04:09:22.973Z,27.7
2018-03-08T04:10:11.809Z,27.4
2018-03-08T04:11:01.826Z,27.2
2018-03-08T04:11:52.641Z,27
2018-03-08T04:12:42.603Z,26.8
2018-03-08T04:13:32.352Z,26.6
2018-03-08T04:14:22.846Z,26.4
2018-03-08T04:15:12.431Z,26.3
2018-03-08T04:16:02.780Z,26.1
2018-03-08T04:16:52.843Z,25.9
2018-03-08T04:17:43.637Z,25.8
2018-03-08T04:18:32.638Z,25.6
2018-03-08T04:19:22.796Z,25.5
2018-03-08T04:20:12.743Z,25.3
2018-03-08T04:21:02.636Z,25.2
2018-03-08T04:21:53.159Z,25
2018-03-08T04:22:42.801Z,24.9
2018-03-08T04:23:33.616Z,24.8
2018-03-08T04:24:22.980Z,24.7
2018-03-08T04:25:27.554Z,24.4
2018-03-08T04:26:03.096Z,25.3
2018-03-08T04:26:53.826Z,25.8
2018-03-08T04:27:42.995Z,26.3
2018-03-08T04:28:33.610Z,26.8
2018-03-08T04:29:23.176Z,27.3
2018-03-08T04:31:02.931Z,28.3
2018-03-08T04:31:54.196Z,28.8
2018-03-08T04:32:43.252Z,28.4
2018-03-08T04:33:34.344Z,28
2018-03-08T04:34:25.237Z,27.7
2018-03-08T04:35:13.906Z,27.4
2018-03-08T04:36:04.219Z,27.2
2018-03-08T04:36:53.970Z,27
2018-03-08T04:37:43.682Z,26.8
2018-03-08T04:38:34.313Z,26.6
2018-03-08T04:39:23.997Z,26.4
2018-03-08T04:40:14.608Z,26.3
2018-03-08T04:41:03.845Z,26.1
2018-03-08T04:41:54.382Z,25.8
2018-03-08T04:42:45.100Z,25.6
2018-03-08T04:43:34.435Z,25.4
2018-03-08T04:44:24.522Z,25.3
2018-03-08T04:45:14.806Z,25.1
2018-03-08T04:46:04.898Z,25
2018-03-08T04:46:54.194Z,24.9
2018-03-08T04:47:45.259Z,24.8
2018-03-08T04:48:35.470Z,24.6
2018-03-08T04:49:25.416Z,24.5
2018-03-08T04:50:15.190Z,24.3
2018-03-08T04:51:05.649Z,24.2
2018-03-08T04:51:54.389Z,24
2018-03-08T04:52:45.636Z,23.9
2018-03-08T04:53:34.902Z,23.8
2018-03-08T04:54:25.525Z,23.6
2018-03-08T04:55:15.014Z,23.7
2018-03-08T04:56:05.471Z,24.1
2018-03-08T04:56:54.534Z,24.8
2018-03-08T04:57:46.249Z,25.5
2018-03-08T04:58:35.541Z,26.1
2018-03-08T04:59:24.729Z,26.7
2018-03-08T05:00:16.075Z,27.2
2018-03-08T05:01:05.623Z,27.6
2018-03-08T05:01:56.283Z,28.1
2018-03-08T05:02:45.337Z,28.6
2018-03-08T05:03:35.942Z,28.7
2018-03-08T05:04:24.804Z,28.1
2018-03-08T05:05:16.333Z,27.8
2018-03-08T05:06:06.071Z,27.5
2018-03-08T05:06:56.833Z,27.3
2018-03-08T05:07:45.858Z,27.1
2018-03-08T05:08:36.121Z,26.9
2018-03-08T05:09:27.153Z,26.7
2018-03-08T05:10:16.579Z,26.5
2018-03-08T05:11:06.522Z,26.3
2018-03-08T05:11:56.200Z,26.1
2018-03-08T05:12:47.311Z,26.1
2018-03-08T05:13:36.867Z,25.8
2018-03-08T05:14:26.753Z,25.4
2018-03-08T05:15:16.124Z,25.1
2018-03-08T05:16:07.232Z,24.8
2018-03-08T05:16:57.100Z,24.6
2018-03-08T05:17:46.667Z,24.3
2018-03-08T05:18:36.840Z,24.2
2018-03-08T05:19:27.690Z,24
2018-03-08T05:20:16.875Z,24.1
2018-03-08T05:21:07.584Z,25.1
2018-03-08T05:21:57.450Z,25.8
2018-03-08T05:22:47.136Z,26.4
2018-03-08T05:23:37.294Z,27
2018-03-08T05:24:27.893Z,27.6
2018-03-08T05:25:17.596Z,28.1
2018-03-08T05:26:08.194Z,28.6
2018-03-08T05:26:57.410Z,28.7
2018-03-08T05:27:47.768Z,28.2
2018-03-08T05:29:26.623Z,27.6
2018-03-08T05:30:16.666Z,27.3
2018-03-08T05:31:08.025Z,27.1
2018-03-08T05:31:58.628Z,26.9
2018-03-08T05:32:46.841Z,26.8
2018-03-08T05:33:39.473Z,26.6
2018-03-08T05:34:29.573Z,26.4
2018-03-08T05:35:19.212Z,26.3
2018-03-08T05:36:09.125Z,26.1
2018-03-08T05:36:59.720Z,25.9
2018-03-08T05:37:49.891Z,25.7
2018-03-08T05:38:39.653Z,25.6
2018-03-08T05:39:29.930Z,25.4
2018-03-08T05:40:19.680Z,25.3
2018-03-08T05:41:09.083Z,25.1
2018-03-08T05:41:59.305Z,24.9
2018-03-08T05:42:48.934Z,24.8
2018-03-08T05:43:39.694Z,24.6
2018-03-08T05:44:29.422Z,24.4
2018-03-08T05:45:18.720Z,24.3
2018-03-08T05:46:09.238Z,24.2
2018-03-08T05:46:59.075Z,24.1
2018-03-08T05:47:48.696Z,23.9
2018-03-08T05:48:39.606Z,23.8
2018-03-08T05:49:29.137Z,23.6
2018-03-08T05:50:18.837Z,23.8
2018-03-08T05:51:09.317Z,24.4
2018-03-08T05:51:58.389Z,25.2
2018-03-08T05:52:50.064Z,25.8
2018-03-08T05:53:40.659Z,26.4
2018-03-08T05:54:28.442Z,26.9
2018-03-08T05:55:18.467Z,27.4
2018-03-08T05:56:09.352Z,27.9
2018-03-08T05:56:59.132Z,28.4
2018-03-08T05:57:49.272Z,28.9
2018-03-08T05:58:39.491Z,28.4
2018-03-08T05:59:29.974Z,27.9
2018-03-08T06:00:20.442Z,27.6
2018-03-08T06:01:10.962Z,27.4
2018-03-08T06:01:59.353Z,27.2
2018-03-08T06:02:50.411Z,27
2018-03-08T06:03:40.172Z,26.8
2018-03-08T06:04:30.651Z,26.6
2018-03-08T06:05:19.094Z,26.4
2018-03-08T06:06:10.376Z,26.3
2018-03-08T06:06:59.600Z,26.1
2018-03-08T06:07:49.966Z,25.9
2018-03-08T06:08:40.058Z,25.8
2018-03-08T06:09:29.963Z,25.6
2018-03-08T06:10:20.564Z,25.4
2018-03-08T06:11:10.357Z,25.3
2018-03-08T06:11:59.201Z,25.1
2018-03-08T06:12:50.546Z,24.9
2018-03-08T06:13:40.676Z,24.8
2018-03-08T06:14:31.013Z,24.7
2018-03-08T06:15:20.269Z,24.6
2018-03-08T06:16:09.676Z,24.4
2018-03-08T06:17:00.446Z,24.3
2018-03-08T06:17:51.004Z,24.1
2018-03-08T06:18:40.908Z,24
2018-03-08T06:19:30.833Z,23.9
2018-03-08T06:20:21.171Z,23.7
2018-03-08T06:21:11.203Z,23.8
2018-03-08T06:22:01.338Z,24.4
2018-03-08T06:22:51.123Z,25.2
2018-03-08T06:23:43.020Z,25.9
2018-03-08T06:24:32.055Z,26.5
2018-03-08T06:25:22.593Z,27
2018-03-08T06:26:12.986Z,27.5
2018-03-08T06:27:02.195Z,28.1
2018-03-08T06:27:53.033Z,28.6
2018-03-08T06:28:42.325Z,28.8
2018-03-08T06:29:32.087Z,28.3
2018-03-08T06:30:22.784Z,27.9
2018-03-08T06:31:10.711Z,27.6
2018-03-08T06:32:03.320Z,27.3
2018-03-08T06:32:52.272Z,27.1
2018-03-08T06:33:43.464Z,26.9
2018-03-08T06:34:33.540Z,26.8
2018-03-08T06:35:22.705Z,26.6
2018-03-08T06:36:12.760Z,26.4
2018-03-08T06:37:03.682Z,26.3
2018-03-08T06:37:53.194Z,26.1
2018-03-08T06:38:43.437Z,25.9
2018-03-08T18:45:02.109Z,26.1
2018-03-08T18:45:51.612Z,25.9
2018-03-08T18:46:43.157Z,25.7
2018-03-08T18:47:32.328Z,25.5
2018-03-08T18:48:22.833Z,25.4
2018-03-08T18:49:13.112Z,25.3
2018-03-08T18:50:03.105Z,25.1
2018-03-08T18:50:52.253Z,24.9
2018-03-08T18:51:43.435Z,24.8
2018-03-08T18:52:34.665Z,24.6
2018-03-08T18:53:24.374Z,24.4
2018-03-08T18:54:14.168Z,24.3
2018-03-08T18:55:04.591Z,24.1
2018-03-08T18:55:53.984Z,24
2018-03-08T18:56:44.161Z,23.9
2018-03-08T18:57:33.707Z,23.8
2018-03-08T18:58:23.138Z,23.8
2018-03-08T18:59:13.826Z,24.3
2018-03-08T19:00:02.923Z,25.1
2018-03-08T19:00:53.929Z,25.7
2018-03-08T19:01:43.316Z,26.3
2018-03-08T19:02:33.331Z,26.8
2018-03-08T19:03:23.311Z,27.2
2018-03-08T19:04:13.902Z,27.6
2018-03-08T19:05:04.256Z,28.1
2018-03-08T19:05:54.006Z,28.6
2018-03-08T19:06:44.257Z,28.9
2018-03-08T19:07:34.053Z,28.5
2018-03-08T19:08:25.180Z,28
2018-03-08T19:09:14.235Z,27.6
2018-03-08T19:10:04.196Z,27.3
2018-03-08T19:10:53.866Z,27.1
2018-03-08T19:11:44.569Z,26.8
2018-03-08T19:12:34.156Z,26.6
2018-03-08T19:13:24.281Z,26.4
2018-03-08T19:14:13.318Z,26.3
2018-03-08T19:15:04.482Z,26.1
2018-03-08T19:15:54.302Z,25.9
2018-03-08T19:16:44.046Z,25.8
2018-03-08T19:17:33.230Z,25.6
2018-03-08T19:18:24.965Z,25.4
2018-03-08T19:19:14.471Z,25.3
2018-03-08T19:20:05.098Z,25.1
2018-03-08T19:20:55.217Z,25
2018-03-08T19:21:45.017Z,24.8
2018-03-08T19:22:35.487Z,24.8
2018-03-08T19:23:24.036Z,24.6
2018-03-08T19:24:14.704Z,24.4
2018-03-08T19:25:05.498Z,24.3
2018-03-08T19:25:55.322Z,24.1
2018-03-08T19:26:43.730Z,24
2018-03-08T19:27:35.157Z,23.9
2018-03-08T19:28:24.680Z,23.8
2018-03-08T19:29:15.550Z,23.8
2018-03-08T19:30:05.934Z,24.4
2018-03-08T19:30:56.237Z,25.1
2018-03-08T19:31:45.082Z,25.8
2018-03-08T19:32:35.743Z,26.3
2018-03-08T19:33:25.949Z,26.8
2018-03-08T19:34:14.993Z,27.2
2018-03-08T19:35:06.308Z,27.6
2018-03-08T19:35:56.034Z,28.1
2018-03-08T19:36:47.844Z,28.5
2018-03-08T19:37:37.000Z,29
2018-03-08T19:38:27.845Z,28.4
2018-03-08T19:39:17.327Z,27.9
2018-03-08T19:40:07.352Z,27.6
2018-03-08T19:40:57.164Z,27.3
2018-03-08T19:41:47.189Z,27.1
2018-03-08T19:42:38.081Z,26.9
2018-03-08T19:43:26.274Z,26.6
2018-03-08T19:44:16.426Z,26.4
2018-03-08T19:45:06.453Z,26.3
2018-03-08T19:45:56.276Z,26.1
2018-03-08T19:46:46.941Z,25.9
2018-03-08T19:47:36.443Z,25.8
2018-03-08T19:48:27.628Z,25.6
2018-03-08T19:49:17.205Z,25.4
2018-03-08T19:50:07.398Z,25.3
2018-03-08T19:50:56.590Z,25.1
2018-03-08T19:51:47.261Z,24.9
2018-03-08T19:52:36.774Z,24.8
2018-03-08T19:53:27.193Z,24.7
2018-03-08T19:54:16.293Z,24.6
2018-03-08T19:55:07.150Z,24.4
2018-03-08T19:55:57.268Z,24.4
2018-03-08T19:56:46.100Z,24
2018-03-08T19:57:37.318Z,24.6
2018-03-08T19:58:27.469Z,25.4
2018-03-08T19:59:17.728Z,26
2018-03-08T20:00:08.193Z,26.5
2018-03-08T20:00:57.425Z,27
2018-03-08T20:01:48.918Z,27.4
2018-03-08T20:03:28.743Z,28.3
2018-03-08T20:04:18.874Z,28.6
2018-03-08T20:05:09.402Z,29
2018-03-08T20:05:58.677Z,28.4
2018-03-08T20:06:49.605Z,27.9
2018-03-08T20:07:39.105Z,27.5
2018-03-08T20:08:29.703Z,27.2
2018-03-08T20:09:19.408Z,26.9
2018-03-08T20:10:09.233Z,26.8
2018-03-08T20:10:59.323Z,26.6
2018-03-08T20:11:49.670Z,26.4
2018-03-08T20:12:39.631Z,26.2
2018-03-08T20:13:29.439Z,26.1
2018-03-08T20:14:19.205Z,25.9
2018-03-08T20:15:10.470Z,25.8
2018-03-08T20:15:59.871Z,25.4
2018-03-08T20:16:49.993Z,25.1
2018-03-08T20:17:39.957Z,24.8
2018-03-08T20:18:30.587Z,24.5
2018-03-08T20:19:20.374Z,24.3
2018-03-08T20:20:10.224Z,24.1
2018-03-08T20:21:00.230Z,23.9
2018-03-08T20:21:47.916Z,24.1
2018-03-08T20:22:39.343Z,24.9
2018-03-08T20:23:28.997Z,25.7
2018-03-08T20:24:19.431Z,26.3
2018-03-08T20:25:09.111Z,26.9
2018-03-08T20:25:59.773Z,27.3
2018-03-08T20:26:49.251Z,27.8
2018-03-08T20:27:39.981Z,28.2
2018-03-08T20:28:29.245Z,28.6
2018-03-08T20:29:20.196Z,29.1
2018-03-08T20:30:10.369Z,28.4
2018-03-08T20:30:59.596Z,27.9
2018-03-08T20:31:49.691Z,27.6
2018-03-08T20:32:40.786Z,27.3
2018-03-08T20:33:29.716Z,27
2018-03-08T20:34:20.223Z,26.8
2018-03-08T20:35:09.774Z,26.6
2018-03-08T20:36:00.513Z,26.4
2018-03-08T20:36:50.092Z,26.2
2018-03-08T20:37:39.479Z,26.1
2018-03-08T20:38:29.890Z,25.9
2018-03-08T20:39:21.285Z,25.8
2018-03-08T20:40:10.291Z,25.4
2018-03-08T20:41:00.090Z,25
2018-03-08T20:41:49.982Z,24.8
2018-03-08T20:42:40.528Z,24.4
2018-03-08T20:43:30.115Z,24.3
2018-03-08T20:44:20.954Z,25.1
2018-03-08T20:45:11.347Z,25.8
2018-03-08T20:46:00.547Z,26.4
2018-03-08T20:46:50.705Z,26.9
2018-03-08T20:47:41.157Z,27.4
2018-03-08T20:49:20.588Z,28.3
2018-03-08T20:50:10.684Z,28.7
2018-03-08T20:51:01.482Z,28.9
2018-03-08T20:51:50.942Z,28.3
2018-03-08T20:53:31.749Z,27.4
2018-03-08T20:54:21.224Z,27.2
2018-03-08T20:55:10.515Z,26.9
2018-03-08T20:56:01.916Z,26.8
2018-03-08T20:56:51.404Z,26.6
2018-03-08T20:57:41.324Z,26.4
2018-03-08T20:58:31.654Z,26.2
2018-03-08T20:59:21.591Z,26
2018-03-08T21:00:11.629Z,25.9
2018-03-08T21:01:01.575Z,25.8
2018-03-08T21:01:51.747Z,25.4
2018-03-08T21:02:41.854Z,25.1
2018-03-08T21:03:32.295Z,24.8
2018-03-08T21:04:22.261Z,24.4
2018-03-08T21:05:12.311Z,24.3
2018-03-08T21:06:01.936Z,25.2
2018-03-08T21:06:52.204Z,25.9
2018-03-08T21:07:42.269Z,26.4
2018-03-08T21:08:32.802Z,27
2018-03-08T21:09:21.694Z,27.4
2018-03-08T21:10:12.688Z,27.9
2018-03-08T21:11:01.520Z,28.3
2018-03-08T21:11:52.863Z,28.8
2018-03-08T21:12:42.183Z,28.9
2018-03-08T21:13:31.886Z,28.3
2018-03-08T21:15:13.115Z,27.5
2018-03-08T21:16:01.364Z,27.2
2018-03-08T21:16:52.308Z,27
2018-03-08T21:17:42.743Z,26.8
2018-03-08T21:18:33.946Z,26.6
2018-03-08T21:19:24.572Z,26.4
2018-03-08T21:20:14.875Z,26.2
2018-03-08T21:21:04.653Z,26
2018-03-08T21:21:54.533Z,25.9
2018-03-08T21:22:45.016Z,25.8
2018-03-08T21:23:34.550Z,25.4
2018-03-08T21:24:24.901Z,25.1
2018-03-08T21:25:14.736Z,24.8
2018-03-08T21:26:04.707Z,24.4
2018-03-08T21:26:55.415Z,24.3
2018-03-08T21:27:44.319Z,25.1
2018-03-08T21:28:35.458Z,25.8
2018-03-08T21:29:24.701Z,26.4
2018-03-08T21:30:15.267Z,26.9
2018-03-08T21:31:05.340Z,27.4
2018-03-08T21:31:55.431Z,27.9
2018-03-08T21:32:45.425Z,28.3
2018-03-08T21:33:35.269Z,28.8
2018-03-08T21:34:25.942Z,28.9
2018-03-08T21:35:15.400Z,28.3
2018-03-08T21:36:55.765Z,27.5
2018-03-08T21:37:45.852Z,27.3
2018-03-08T21:38:35.635Z,27
2018-03-08T21:39:25.682Z,26.8
2018-03-08T21:40:16.291Z,26.6
2018-03-08T21:41:05.852Z,26.4
2018-03-08T21:41:56.222Z,26.3
2018-03-08T21:42:46.457Z,26
2018-03-08T21:43:35.410Z,25.8
2018-03-08T21:44:26.315Z,25.7
2018-03-08T21:45:15.525Z,25.5
2018-03-08T21:46:06.201Z,25.1
2018-03-08T21:46:56.222Z,24.8
2018-03-08T21:47:45.531Z,24.5
2018-03-08T21:48:36.197Z,24.3
2018-03-08T21:49:25.869Z,24.9
2018-03-08T21:50:16.571Z,25.7
2018-03-08T21:51:06.349Z,26.3
2018-03-08T21:51:56.362Z,26.9
2018-03-08T21:52:46.387Z,27.4
2018-03-08T21:54:26.213Z,28.3
2018-03-08T21:55:16.484Z,28.7
2018-03-08T21:56:06.589Z,29.1
2018-03-08T21:56:56.610Z,28.5
2018-03-08T21:57:46.769Z,28
2018-03-08T21:58:36.454Z,27.6
2018-03-08T21:59:26.617Z,27.4
2018-03-08T22:00:17.473Z,27.1
2018-03-08T22:01:07.563Z,26.9
2018-03-08T22:01:56.950Z,26.7
2018-03-08T22:02:47.286Z,26.5
2018-03-08T22:03:37.366Z,26.3
2018-03-08T22:04:28.023Z,26.2
2018-03-08T22:05:17.481Z,26
2018-03-08T22:06:07.578Z,25.8
2018-03-08T22:06:57.377Z,25.6
2018-03-08T22:07:47.971Z,25.3
2018-03-08T22:08:38.231Z,24.9
2018-03-08T22:09:28.314Z,24.6
2018-03-08T22:10:17.826Z,24.4
2018-03-08T22:11:07.601Z,24.6
2018-03-08T22:11:58.319Z,25.4
2018-03-08T22:12:47.685Z,26.1
2018-03-08T22:13:38.613Z,26.7
2018-03-08T22:14:28.840Z,27.2
2018-03-08T22:15:18.687Z,27.6
2018-03-08T22:16:08.467Z,28.1
2018-03-08T22:16:58.815Z,28.5
2018-03-08T22:17:48.647Z,28.9
2018-03-08T22:18:38.389Z,28.8
2018-03-08T22:19:29.012Z,28.1
2018-03-08T22:20:18.489Z,27.8
2018-03-08T22:21:09.122Z,27.4
2018-03-08T22:21:58.918Z,27.2
2018-03-08T22:22:48.984Z,26.9
2018-03-08T22:23:38.977Z,26.8
2018-03-08T22:24:29.031Z,26.6
2018-03-08T22:25:19.407Z,26.4
2018-03-08T22:26:08.874Z,26.2
2018-03-08T22:26:59.229Z,26
2018-03-08T22:27:49.289Z,25.8
2018-03-08T22:28:38.152Z,25.8
2018-03-08T22:29:28.697Z,25.4
2018-03-08T22:30:17.879Z,25
2018-03-08T22:31:08.140Z,24.7
2018-03-08T22:31:57.777Z,24.4
2018-03-08T22:32:49.051Z,24.4
2018-03-08T22:33:38.396Z,25.3
2018-03-08T22:34:27.805Z,26
2018-03-08T22:35:18.547Z,26.6
2018-03-08T22:36:09.075Z,27.1
2018-03-08T22:36:58.069Z,27.6
2018-03-08T22:37:48.993Z,27.9
2018-03-08T22:38:38.382Z,28.4
2018-03-08T22:39:28.971Z,28.8
2018-03-08T22:40:19.485Z,28.8
2018-03-08T22:41:08.064Z,28.2
2018-03-08T22:41:58.779Z,27.8
2018-03-08T22:42:49.259Z,27.4
2018-03-08T22:43:39.313Z,27.2
2018-03-08T22:44:28.993Z,26.9
2018-03-08T22:45:18.541Z,26.8
2018-03-08T22:46:09.756Z,26.6
2018-03-08T22:46:58.435Z,26.4
2018-03-08T22:47:49.666Z,26.2
2018-03-08T22:48:38.277Z,26
2018-03-08T22:49:29.389Z,25.8
2018-03-08T22:50:19.983Z,25.8
2018-03-08T22:51:09.821Z,25.3
2018-03-08T22:51:59.330Z,25
2018-03-08T22:52:51.088Z,24.7
2018-03-08T22:53:40.859Z,24.4
2018-03-08T22:54:30.880Z,24.3
2018-03-08T22:55:21.264Z,25.1
2018-03-08T22:56:11.028Z,25.8
2018-03-08T22:57:01.355Z,26.4
2018-03-08T22:57:51.409Z,26.9
2018-03-08T22:58:40.896Z,27.4
2018-03-08T23:00:20.430Z,28.3
2018-03-08T23:01:11.360Z,28.7
2018-03-08T23:02:01.471Z,29
2018-03-08T23:02:51.746Z,28.4
2018-03-08T23:03:41.856Z,27.9
2018-03-08T23:04:31.363Z,27.6
2018-03-08T23:05:21.427Z,27.3
2018-03-08T23:06:11.938Z,27.1
2018-03-08T23:07:01.741Z,26.8
2018-03-08T23:07:51.516Z,26.6
2018-03-08T23:08:41.857Z,26.4
2018-03-08T23:09:31.962Z,26.3
2018-03-08T23:10:22.267Z,26.1
2018-03-08T23:11:12.035Z,25.9
2018-03-08T23:12:02.115Z,25.8
2018-03-08T23:12:51.959Z,25.4
2018-03-08T23:13:42.243Z,25.1
2018-03-08T23:14:33.060Z,24.8
2018-03-08T23:15:22.397Z,24.5
2018-03-08T23:16:12.940Z,24.3
2018-03-08T23:17:02.730Z,24.6
2018-03-08T23:17:52.781Z,25.4
2018-03-08T23:18:42.262Z,26.1
2018-03-08T23:19:33.177Z,26.6
2018-03-08T23:20:22.931Z,27.1
2018-03-08T23:21:13.264Z,27.6
2018-03-08T23:22:03.159Z,28.1
2018-03-08T23:22:52.882Z,28.5
2018-03-08T23:23:43.521Z,28.9
2018-03-08T23:24:32.711Z,28.6
2018-03-08T23:25:23.319Z,28.1
2018-03-08T23:26:11.749Z,27.7